sensor_id;sensor_type;location;lat;lon;timestamp;temperature;humidity
52211;DHT22;38179;52.756;6.906;2023-04-07T00:01:34;6.70;99.90
52211;DHT22;38179;52.756;6.906;2023-04-07T00:04:00;6.70;99.90
52211;DHT22;38179;52.756;6.906;2023-04-07T00:06:26;6.70;99.90
52211;DHT22;38179;52.756;6.906;2023-04-07T00:08:53;6.70;99.90
52211;DHT22;38179;52.756;6.906;2023-04-07T00:11:18;6.70;99.90
52211;DHT22;38179;52.756;6.906;2023-04-07T00:13:44;6.70;99.90
52211;DHT22;38179;52.756;6.906;2023-04-07T00:16:10;6.70;99.90
52211;DHT22;38179;52.756;6.906;2023-04-07T00:18:35;6.70;99.90
52211;DHT22;38179;52.756;6.906;2023-04-07T00:21:01;6.70;99.90
52211;DHT22;38179;52.756;6.906;2023-04-07T00:23:27;6.70;99.90
52211;DHT22;38179;52.756;6.906;2023-04-07T00:25:52;6.70;99.90
52211;DHT22;38179;52.756;6.906;2023-04-07T00:28:18;6.70;99.90
52211;DHT22;38179;52.756;6.906;2023-04-07T00:30:44;6.70;99.90
52211;DHT22;38179;52.756;6.906;2023-04-07T00:33:10;6.70;99.90
52211;DHT22;38179;52.756;6.906;2023-04-07T00:35:35;6.70;99.90
52211;DHT22;38179;52.756;6.906;2023-04-07T00:38:01;6.70;99.90
52211;DHT22;38179;52.756;6.906;2023-04-07T00:40:28;6.70;99.90
52211;DHT22;38179;52.756;6.906;2023-04-07T00:42:53;6.60;99.90
52211;DHT22;38179;52.756;6.906;2023-04-07T00:45:19;6.70;99.90
52211;DHT22;38179;52.756;6.906;2023-04-07T00:47:45;6.70;99.90
52211;DHT22;38179;52.756;6.906;2023-04-07T00:50:11;6.70;99.90
52211;DHT22;38179;52.756;6.906;2023-04-07T00:52:37;6.70;99.90
52211;DHT22;38179;52.756;6.906;2023-04-07T00:55:04;6.60;99.90
52211;DHT22;38179;52.756;6.906;2023-04-07T00:57:30;6.70;99.90
52211;DHT22;38179;52.756;6.906;2023-04-07T00:59:55;6.70;99.90
52211;DHT22;38179;52.756;6.906;2023-04-07T01:02:23;6.70;99.90
52211;DHT22;38179;52.756;6.906;2023-04-07T01:07:39;6.70;99.90
52211;DHT22;38179;52.756;6.906;2023-04-07T01:10:09;6.70;99.90
52211;DHT22;38179;52.756;6.906;2023-04-07T01:12:43;6.70;99.90
52211;DHT22;38179;52.756;6.906;2023-04-07T01:15:11;6.70;99.90
52211;DHT22;38179;52.756;6.906;2023-04-07T01:17:50;6.70;99.90
52211;DHT22;38179;52.756;6.906;2023-04-07T01:20:18;6.70;99.90
52211;DHT22;38179;52.756;6.906;2023-04-07T01:22:46;6.60;99.90
52211;DHT22;38179;52.756;6.906;2023-04-07T01:27:59;6.70;99.90
52211;DHT22;38179;52.756;6.906;2023-04-07T01:30:30;6.60;99.90
52211;DHT22;38179;52.756;6.906;2023-04-07T01:32:57;6.60;99.90
52211;DHT22;38179;52.756;6.906;2023-04-07T01:35:23;6.70;99.90
52211;DHT22;38179;52.756;6.906;2023-04-07T01:37:49;6.70;99.90
52211;DHT22;38179;52.756;6.906;2023-04-07T01:40:15;6.60;99.90
52211;DHT22;38179;52.756;6.906;2023-04-07T01:42:41;6.60;99.90
52211;DHT22;38179;52.756;6.906;2023-04-07T01:45:07;6.60;99.90
52211;DHT22;38179;52.756;6.906;2023-04-07T01:47:34;6.60;99.90
52211;DHT22;38179;52.756;6.906;2023-04-07T01:50:02;6.60;99.90
52211;DHT22;38179;52.756;6.906;2023-04-07T01:52:34;6.70;99.90
52211;DHT22;38179;52.756;6.906;2023-04-07T01:55:01;6.60;99.90
52211;DHT22;38179;52.756;6.906;2023-04-07T01:57:27;6.60;99.90
52211;DHT22;38179;52.756;6.906;2023-04-07T01:59:53;6.60;99.90
52211;DHT22;38179;52.756;6.906;2023-04-07T02:02:19;6.60;99.90
52211;DHT22;38179;52.756;6.906;2023-04-07T02:04:54;6.60;99.90
52211;DHT22;38179;52.756;6.906;2023-04-07T02:07:31;6.60;99.90
52211;DHT22;38179;52.756;6.906;2023-04-07T02:09:59;6.60;99.90
52211;DHT22;38179;52.756;6.906;2023-04-07T02:12:26;6.60;99.90
52211;DHT22;38179;52.756;6.906;2023-04-07T02:14:53;6.60;99.90
52211;DHT22;38179;52.756;6.906;2023-04-07T02:17:20;6.60;99.90
52211;DHT22;38179;52.756;6.906;2023-04-07T02:19:47;6.60;99.90
52211;DHT22;38179;52.756;6.906;2023-04-07T02:22:13;6.60;99.90
52211;DHT22;38179;52.756;6.906;2023-04-07T02:24:40;6.60;99.90
52211;DHT22;38179;52.756;6.906;2023-04-07T02:27:07;6.60;99.90
52211;DHT22;38179;52.756;6.906;2023-04-07T02:29:32;6.50;99.90
52211;DHT22;38179;52.756;6.906;2023-04-07T02:31:58;6.60;99.90
52211;DHT22;38179;52.756;6.906;2023-04-07T02:34:24;6.60;99.90
52211;DHT22;38179;52.756;6.906;2023-04-07T02:36:50;6.60;99.90
52211;DHT22;38179;52.756;6.906;2023-04-07T02:39:16;6.60;99.90
52211;DHT22;38179;52.756;6.906;2023-04-07T02:41:41;6.60;99.90
52211;DHT22;38179;52.756;6.906;2023-04-07T02:44:07;6.50;99.90
52211;DHT22;38179;52.756;6.906;2023-04-07T02:46:33;6.60;99.90
52211;DHT22;38179;52.756;6.906;2023-04-07T02:48:59;6.60;99.90
52211;DHT22;38179;52.756;6.906;2023-04-07T02:51:25;6.60;99.90
52211;DHT22;38179;52.756;6.906;2023-04-07T02:53:51;6.60;99.90
52211;DHT22;38179;52.756;6.906;2023-04-07T02:56:17;6.60;99.90
52211;DHT22;38179;52.756;6.906;2023-04-07T02:58:42;6.60;99.90
52211;DHT22;38179;52.756;6.906;2023-04-07T03:01:08;6.60;99.90
52211;DHT22;38179;52.756;6.906;2023-04-07T03:03:34;6.60;99.90
52211;DHT22;38179;52.756;6.906;2023-04-07T03:06:00;6.60;99.90
52211;DHT22;38179;52.756;6.906;2023-04-07T03:08:26;6.60;99.90
52211;DHT22;38179;52.756;6.906;2023-04-07T03:10:51;6.60;99.90
52211;DHT22;38179;52.756;6.906;2023-04-07T03:13:19;6.60;99.90
52211;DHT22;38179;52.756;6.906;2023-04-07T03:15:45;6.60;99.90
52211;DHT22;38179;52.756;6.906;2023-04-07T03:18:11;6.60;99.90
52211;DHT22;38179;52.756;6.906;2023-04-07T03:20:37;6.60;99.90
52211;DHT22;38179;52.756;6.906;2023-04-07T03:23:06;6.60;99.90
52211;DHT22;38179;52.756;6.906;2023-04-07T03:25:32;6.60;99.90
52211;DHT22;38179;52.756;6.906;2023-04-07T03:27:57;6.60;99.90
52211;DHT22;38179;52.756;6.906;2023-04-07T03:30:23;6.60;99.90
52211;DHT22;38179;52.756;6.906;2023-04-07T03:32:49;6.60;99.90
52211;DHT22;38179;52.756;6.906;2023-04-07T03:35:15;6.60;99.90
52211;DHT22;38179;52.756;6.906;2023-04-07T03:37:41;6.60;99.90
52211;DHT22;38179;52.756;6.906;2023-04-07T03:40:07;6.60;99.90
52211;DHT22;38179;52.756;6.906;2023-04-07T03:42:33;6.60;99.90
52211;DHT22;38179;52.756;6.906;2023-04-07T03:44:58;6.60;99.90
52211;DHT22;38179;52.756;6.906;2023-04-07T03:47:24;6.60;99.90
52211;DHT22;38179;52.756;6.906;2023-04-07T03:49:50;6.60;99.90
52211;DHT22;38179;52.756;6.906;2023-04-07T03:52:15;6.60;99.90
52211;DHT22;38179;52.756;6.906;2023-04-07T03:54:42;6.60;99.90
52211;DHT22;38179;52.756;6.906;2023-04-07T03:57:08;6.60;99.90
52211;DHT22;38179;52.756;6.906;2023-04-07T03:59:34;6.60;99.90
52211;DHT22;38179;52.756;6.906;2023-04-07T04:02:00;6.60;99.90
52211;DHT22;38179;52.756;6.906;2023-04-07T04:04:25;6.60;99.90
52211;DHT22;38179;52.756;6.906;2023-04-07T04:06:51;6.60;99.90
52211;DHT22;38179;52.756;6.906;2023-04-07T04:09:17;6.70;99.90
52211;DHT22;38179;52.756;6.906;2023-04-07T04:11:42;6.60;99.90
52211;DHT22;38179;52.756;6.906;2023-04-07T04:14:08;6.60;99.90
52211;DHT22;38179;52.756;6.906;2023-04-07T04:16:34;6.60;99.90
52211;DHT22;38179;52.756;6.906;2023-04-07T04:19:00;6.60;99.90
52211;DHT22;38179;52.756;6.906;2023-04-07T04:21:26;6.60;99.90
52211;DHT22;38179;52.756;6.906;2023-04-07T04:23:52;6.60;99.90
52211;DHT22;38179;52.756;6.906;2023-04-07T04:26:18;6.60;99.90
52211;DHT22;38179;52.756;6.906;2023-04-07T04:28:43;6.60;99.90
52211;DHT22;38179;52.756;6.906;2023-04-07T04:31:09;6.60;99.90
52211;DHT22;38179;52.756;6.906;2023-04-07T04:33:35;6.60;99.90
52211;DHT22;38179;52.756;6.906;2023-04-07T04:36:01;6.60;99.90
52211;DHT22;38179;52.756;6.906;2023-04-07T04:38:26;6.60;99.90
52211;DHT22;38179;52.756;6.906;2023-04-07T04:40:52;6.60;99.90
52211;DHT22;38179;52.756;6.906;2023-04-07T04:43:18;6.60;99.90
52211;DHT22;38179;52.756;6.906;2023-04-07T04:45:43;6.60;99.90
52211;DHT22;38179;52.756;6.906;2023-04-07T04:48:10;6.60;99.90
52211;DHT22;38179;52.756;6.906;2023-04-07T04:50:35;6.60;99.90
52211;DHT22;38179;52.756;6.906;2023-04-07T04:53:01;6.60;99.90
52211;DHT22;38179;52.756;6.906;2023-04-07T04:55:27;6.50;99.90
52211;DHT22;38179;52.756;6.906;2023-04-07T04:57:53;6.60;99.90
52211;DHT22;38179;52.756;6.906;2023-04-07T05:00:19;6.60;99.90
52211;DHT22;38179;52.756;6.906;2023-04-07T05:02:46;6.60;99.90
52211;DHT22;38179;52.756;6.906;2023-04-07T05:05:12;6.60;99.90
52211;DHT22;38179;52.756;6.906;2023-04-07T05:07:38;6.50;99.90
52211;DHT22;38179;52.756;6.906;2023-04-07T05:10:05;6.50;99.90
52211;DHT22;38179;52.756;6.906;2023-04-07T05:12:31;6.50;99.90
52211;DHT22;38179;52.756;6.906;2023-04-07T05:14:57;6.60;99.90
52211;DHT22;38179;52.756;6.906;2023-04-07T05:17:23;6.50;99.90
52211;DHT22;38179;52.756;6.906;2023-04-07T05:19:49;6.50;99.90
52211;DHT22;38179;52.756;6.906;2023-04-07T05:22:14;6.50;99.90
52211;DHT22;38179;52.756;6.906;2023-04-07T05:24:41;6.50;99.90
52211;DHT22;38179;52.756;6.906;2023-04-07T05:27:06;6.60;99.90
52211;DHT22;38179;52.756;6.906;2023-04-07T05:29:32;6.60;99.90
52211;DHT22;38179;52.756;6.906;2023-04-07T05:31:58;6.60;99.90
52211;DHT22;38179;52.756;6.906;2023-04-07T05:34:26;6.60;99.90
52211;DHT22;38179;52.756;6.906;2023-04-07T05:36:51;6.60;99.90
52211;DHT22;38179;52.756;6.906;2023-04-07T05:39:17;6.60;99.90
52211;DHT22;38179;52.756;6.906;2023-04-07T05:41:43;6.60;99.90
52211;DHT22;38179;52.756;6.906;2023-04-07T05:44:09;6.60;99.90
52211;DHT22;38179;52.756;6.906;2023-04-07T05:46:35;6.60;99.90
52211;DHT22;38179;52.756;6.906;2023-04-07T05:49:01;6.60;99.90
52211;DHT22;38179;52.756;6.906;2023-04-07T05:51:26;6.60;99.90
52211;DHT22;38179;52.756;6.906;2023-04-07T05:53:52;6.60;99.90
52211;DHT22;38179;52.756;6.906;2023-04-07T05:56:18;6.60;99.90
52211;DHT22;38179;52.756;6.906;2023-04-07T05:58:43;6.60;99.90
52211;DHT22;38179;52.756;6.906;2023-04-07T06:01:09;6.70;99.90
52211;DHT22;38179;52.756;6.906;2023-04-07T06:03:35;6.60;99.90
52211;DHT22;38179;52.756;6.906;2023-04-07T06:06:00;6.70;99.90
52211;DHT22;38179;52.756;6.906;2023-04-07T06:08:26;6.70;99.90
52211;DHT22;38179;52.756;6.906;2023-04-07T06:10:52;6.70;99.90
52211;DHT22;38179;52.756;6.906;2023-04-07T06:13:17;6.70;99.90
52211;DHT22;38179;52.756;6.906;2023-04-07T06:15:43;6.70;99.90
52211;DHT22;38179;52.756;6.906;2023-04-07T06:18:09;6.70;99.90
52211;DHT22;38179;52.756;6.906;2023-04-07T06:20:35;6.70;99.90
52211;DHT22;38179;52.756;6.906;2023-04-07T06:23:01;6.70;99.90
52211;DHT22;38179;52.756;6.906;2023-04-07T06:25:26;6.70;99.90
52211;DHT22;38179;52.756;6.906;2023-04-07T06:27:52;6.70;99.90
52211;DHT22;38179;52.756;6.906;2023-04-07T06:30:18;6.70;99.90
52211;DHT22;38179;52.756;6.906;2023-04-07T06:32:44;6.70;99.90
52211;DHT22;38179;52.756;6.906;2023-04-07T06:35:09;6.70;99.90
52211;DHT22;38179;52.756;6.906;2023-04-07T06:37:35;6.70;99.90
52211;DHT22;38179;52.756;6.906;2023-04-07T06:40:01;6.70;99.90
52211;DHT22;38179;52.756;6.906;2023-04-07T06:42:27;6.70;99.90
52211;DHT22;38179;52.756;6.906;2023-04-07T06:44:52;6.70;99.90
52211;DHT22;38179;52.756;6.906;2023-04-07T06:47:18;6.70;99.90
52211;DHT22;38179;52.756;6.906;2023-04-07T06:49:44;6.70;99.90
52211;DHT22;38179;52.756;6.906;2023-04-07T06:52:10;6.80;99.90
52211;DHT22;38179;52.756;6.906;2023-04-07T06:54:35;6.80;99.90
52211;DHT22;38179;52.756;6.906;2023-04-07T06:57:01;6.80;99.90
52211;DHT22;38179;52.756;6.906;2023-04-07T06:59:27;6.80;99.90
52211;DHT22;38179;52.756;6.906;2023-04-07T07:01:52;6.80;99.90
52211;DHT22;38179;52.756;6.906;2023-04-07T07:04:18;6.90;99.90
52211;DHT22;38179;52.756;6.906;2023-04-07T07:06:44;6.90;99.90
52211;DHT22;38179;52.756;6.906;2023-04-07T07:09:10;6.90;99.90
52211;DHT22;38179;52.756;6.906;2023-04-07T07:11:35;6.90;99.90
52211;DHT22;38179;52.756;6.906;2023-04-07T07:14:01;7.00;99.90
52211;DHT22;38179;52.756;6.906;2023-04-07T07:16:27;7.00;99.90
52211;DHT22;38179;52.756;6.906;2023-04-07T07:18:53;7.00;99.90
52211;DHT22;38179;52.756;6.906;2023-04-07T07:21:19;7.10;99.90
52211;DHT22;38179;52.756;6.906;2023-04-07T07:23:45;7.10;99.90
52211;DHT22;38179;52.756;6.906;2023-04-07T07:26:11;7.10;99.90
52211;DHT22;38179;52.756;6.906;2023-04-07T07:28:36;7.10;99.90
52211;DHT22;38179;52.756;6.906;2023-04-07T07:31:11;7.20;99.90
52211;DHT22;38179;52.756;6.906;2023-04-07T07:33:41;7.20;99.90
52211;DHT22;38179;52.756;6.906;2023-04-07T07:36:08;7.20;99.90
52211;DHT22;38179;52.756;6.906;2023-04-07T07:38:34;7.30;99.90
52211;DHT22;38179;52.756;6.906;2023-04-07T07:41:01;7.30;99.90
52211;DHT22;38179;52.756;6.906;2023-04-07T07:43:27;7.30;99.90
52211;DHT22;38179;52.756;6.906;2023-04-07T07:45:52;7.40;99.90
52211;DHT22;38179;52.756;6.906;2023-04-07T07:48:18;7.40;99.90
52211;DHT22;38179;52.756;6.906;2023-04-07T07:50:44;7.50;99.90
52211;DHT22;38179;52.756;6.906;2023-04-07T07:53:10;7.40;99.90
52211;DHT22;38179;52.756;6.906;2023-04-07T07:55:35;7.50;99.90
52211;DHT22;38179;52.756;6.906;2023-04-07T07:58:01;7.50;99.90
52211;DHT22;38179;52.756;6.906;2023-04-07T08:00:27;7.50;99.90
52211;DHT22;38179;52.756;6.906;2023-04-07T08:02:53;7.60;99.90
52211;DHT22;38179;52.756;6.906;2023-04-07T08:05:19;7.50;99.90
52211;DHT22;38179;52.756;6.906;2023-04-07T08:07:44;7.60;99.90
52211;DHT22;38179;52.756;6.906;2023-04-07T08:10:11;7.60;99.90
52211;DHT22;38179;52.756;6.906;2023-04-07T08:12:37;7.60;99.90
52211;DHT22;38179;52.756;6.906;2023-04-07T08:15:04;7.60;99.90
52211;DHT22;38179;52.756;6.906;2023-04-07T08:17:30;7.60;99.90
52211;DHT22;38179;52.756;6.906;2023-04-07T08:19:56;7.60;99.90
52211;DHT22;38179;52.756;6.906;2023-04-07T08:22:21;7.70;99.90
52211;DHT22;38179;52.756;6.906;2023-04-07T08:24:47;7.70;99.90
52211;DHT22;38179;52.756;6.906;2023-04-07T08:27:13;7.60;99.90
52211;DHT22;38179;52.756;6.906;2023-04-07T08:29:39;7.70;99.90
52211;DHT22;38179;52.756;6.906;2023-04-07T08:32:04;7.70;99.90
52211;DHT22;38179;52.756;6.906;2023-04-07T08:34:30;7.70;99.90
52211;DHT22;38179;52.756;6.906;2023-04-07T08:36:56;7.70;99.90
52211;DHT22;38179;52.756;6.906;2023-04-07T08:39:22;7.70;99.90
52211;DHT22;38179;52.756;6.906;2023-04-07T08:41:49;7.80;99.90
52211;DHT22;38179;52.756;6.906;2023-04-07T08:44:15;7.90;99.90
52211;DHT22;38179;52.756;6.906;2023-04-07T08:46:42;8.00;99.90
52211;DHT22;38179;52.756;6.906;2023-04-07T08:49:09;8.00;99.90
52211;DHT22;38179;52.756;6.906;2023-04-07T08:51:36;8.10;99.90
52211;DHT22;38179;52.756;6.906;2023-04-07T08:54:11;8.10;99.90
52211;DHT22;38179;52.756;6.906;2023-04-07T08:56:38;8.20;99.90
52211;DHT22;38179;52.756;6.906;2023-04-07T08:59:07;8.20;99.90
52211;DHT22;38179;52.756;6.906;2023-04-07T09:01:34;8.20;99.90
52211;DHT22;38179;52.756;6.906;2023-04-07T09:04:01;8.20;99.90
52211;DHT22;38179;52.756;6.906;2023-04-07T09:06:28;8.20;99.90
52211;DHT22;38179;52.756;6.906;2023-04-07T09:08:59;8.20;99.90
52211;DHT22;38179;52.756;6.906;2023-04-07T09:11:25;8.20;99.90
52211;DHT22;38179;52.756;6.906;2023-04-07T09:13:51;8.20;99.90
52211;DHT22;38179;52.756;6.906;2023-04-07T09:16:17;8.20;99.90
52211;DHT22;38179;52.756;6.906;2023-04-07T09:18:43;8.30;99.90
52211;DHT22;38179;52.756;6.906;2023-04-07T09:21:09;8.30;99.90
52211;DHT22;38179;52.756;6.906;2023-04-07T09:23:37;8.30;99.90
52211;DHT22;38179;52.756;6.906;2023-04-07T09:28:54;8.40;99.90
52211;DHT22;38179;52.756;6.906;2023-04-07T09:31:21;8.40;99.90
52211;DHT22;38179;52.756;6.906;2023-04-07T09:33:47;8.40;99.90
52211;DHT22;38179;52.756;6.906;2023-04-07T09:36:13;8.50;99.90
52211;DHT22;38179;52.756;6.906;2023-04-07T09:38:39;8.50;99.90
52211;DHT22;38179;52.756;6.906;2023-04-07T09:41:09;8.50;99.90
52211;DHT22;38179;52.756;6.906;2023-04-07T09:43:36;8.60;99.90
52211;DHT22;38179;52.756;6.906;2023-04-07T09:46:09;8.50;99.90
52211;DHT22;38179;52.756;6.906;2023-04-07T09:48:35;8.60;99.90
52211;DHT22;38179;52.756;6.906;2023-04-07T09:51:11;8.60;99.90
52211;DHT22;38179;52.756;6.906;2023-04-07T09:53:42;8.80;99.90
52211;DHT22;38179;52.756;6.906;2023-04-07T09:56:11;9.00;99.90
52211;DHT22;38179;52.756;6.906;2023-04-07T09:58:37;9.10;99.90
52211;DHT22;38179;52.756;6.906;2023-04-07T10:01:09;9.20;99.90
52211;DHT22;38179;52.756;6.906;2023-04-07T10:03:36;9.30;99.90
52211;DHT22;38179;52.756;6.906;2023-04-07T10:06:02;9.30;99.90
52211;DHT22;38179;52.756;6.906;2023-04-07T10:08:29;9.30;99.90
52211;DHT22;38179;52.756;6.906;2023-04-07T10:10:55;9.20;99.90
52211;DHT22;38179;52.756;6.906;2023-04-07T10:13:22;9.20;99.90
52211;DHT22;38179;52.756;6.906;2023-04-07T10:15:49;9.10;99.90
52211;DHT22;38179;52.756;6.906;2023-04-07T10:18:14;9.00;99.90
52211;DHT22;38179;52.756;6.906;2023-04-07T10:20:42;8.90;99.90
52211;DHT22;38179;52.756;6.906;2023-04-07T10:23:12;8.80;99.90
52211;DHT22;38179;52.756;6.906;2023-04-07T10:25:40;8.80;99.90
52211;DHT22;38179;52.756;6.906;2023-04-07T10:28:07;8.70;99.90
52211;DHT22;38179;52.756;6.906;2023-04-07T10:30:34;8.70;99.90
52211;DHT22;38179;52.756;6.906;2023-04-07T10:33:00;8.60;99.90
52211;DHT22;38179;52.756;6.906;2023-04-07T10:35:26;8.60;99.90
52211;DHT22;38179;52.756;6.906;2023-04-07T10:40:31;8.60;99.90
52211;DHT22;38179;52.756;6.906;2023-04-07T10:42:57;8.70;99.90
52211;DHT22;38179;52.756;6.906;2023-04-07T10:48:18;8.70;99.90
52211;DHT22;38179;52.756;6.906;2023-04-07T10:50:45;8.70;99.90
52211;DHT22;38179;52.756;6.906;2023-04-07T10:53:11;8.80;99.90
52211;DHT22;38179;52.756;6.906;2023-04-07T10:55:41;8.80;99.90
52211;DHT22;38179;52.756;6.906;2023-04-07T11:03:22;8.80;99.90
52211;DHT22;38179;52.756;6.906;2023-04-07T11:05:48;8.80;99.90
52211;DHT22;38179;52.756;6.906;2023-04-07T11:08:13;8.70;99.90
52211;DHT22;38179;52.756;6.906;2023-04-07T11:10:39;8.70;99.90
52211;DHT22;38179;52.756;6.906;2023-04-07T11:13:11;8.70;99.90
52211;DHT22;38179;52.756;6.906;2023-04-07T11:15:37;8.70;99.90
52211;DHT22;38179;52.756;6.906;2023-04-07T11:18:10;8.70;99.90
52211;DHT22;38179;52.756;6.906;2023-04-07T11:20:42;8.70;99.90
52211;DHT22;38179;52.756;6.906;2023-04-07T11:23:08;8.70;99.90
52211;DHT22;38179;52.756;6.906;2023-04-07T11:25:35;8.70;99.90
52211;DHT22;38179;52.756;6.906;2023-04-07T11:28:02;8.80;99.90
52211;DHT22;38179;52.756;6.906;2023-04-07T11:30:28;8.80;99.90
52211;DHT22;38179;52.756;6.906;2023-04-07T11:32:54;8.80;99.90
52211;DHT22;38179;52.756;6.906;2023-04-07T11:35:21;8.80;99.90
52211;DHT22;38179;52.756;6.906;2023-04-07T11:37:47;8.80;99.90
52211;DHT22;38179;52.756;6.906;2023-04-07T11:40:12;8.80;99.90
52211;DHT22;38179;52.756;6.906;2023-04-07T11:42:41;8.80;99.90
52211;DHT22;38179;52.756;6.906;2023-04-07T11:45:16;8.80;99.90
52211;DHT22;38179;52.756;6.906;2023-04-07T11:47:44;8.80;99.90
52211;DHT22;38179;52.756;6.906;2023-04-07T11:50:09;8.90;99.90
52211;DHT22;38179;52.756;6.906;2023-04-07T11:52:42;8.90;99.90
52211;DHT22;38179;52.756;6.906;2023-04-07T11:55:17;8.90;99.90
52211;DHT22;38179;52.756;6.906;2023-04-07T11:57:43;9.00;99.90
52211;DHT22;38179;52.756;6.906;2023-04-07T12:00:10;9.00;99.90
52211;DHT22;38179;52.756;6.906;2023-04-07T12:02:36;9.10;99.90
52211;DHT22;38179;52.756;6.906;2023-04-07T12:05:03;9.10;99.90
52211;DHT22;38179;52.756;6.906;2023-04-07T12:07:29;9.10;99.90
52211;DHT22;38179;52.756;6.906;2023-04-07T12:09:54;9.10;99.90
52211;DHT22;38179;52.756;6.906;2023-04-07T12:12:28;9.20;99.90
52211;DHT22;38179;52.756;6.906;2023-04-07T12:14:54;9.20;99.90
52211;DHT22;38179;52.756;6.906;2023-04-07T12:17:24;9.20;99.90
52211;DHT22;38179;52.756;6.906;2023-04-07T12:19:51;9.30;99.90
52211;DHT22;38179;52.756;6.906;2023-04-07T12:22:17;9.40;99.90
52211;DHT22;38179;52.756;6.906;2023-04-07T12:24:43;9.50;99.90
52211;DHT22;38179;52.756;6.906;2023-04-07T12:27:08;9.60;99.90
52211;DHT22;38179;52.756;6.906;2023-04-07T12:29:34;9.70;99.90
52211;DHT22;38179;52.756;6.906;2023-04-07T12:32:03;9.70;99.90
52211;DHT22;38179;52.756;6.906;2023-04-07T12:34:37;9.80;99.90
52211;DHT22;38179;52.756;6.906;2023-04-07T12:37:03;9.90;99.90
52211;DHT22;38179;52.756;6.906;2023-04-07T12:39:29;9.90;99.90
52211;DHT22;38179;52.756;6.906;2023-04-07T12:41:55;9.90;99.90
52211;DHT22;38179;52.756;6.906;2023-04-07T12:44:22;10.00;99.90
52211;DHT22;38179;52.756;6.906;2023-04-07T12:46:48;10.10;99.90
52211;DHT22;38179;52.756;6.906;2023-04-07T12:49:14;10.20;99.90
52211;DHT22;38179;52.756;6.906;2023-04-07T12:51:41;10.20;99.90
52211;DHT22;38179;52.756;6.906;2023-04-07T12:54:06;10.30;99.90
52211;DHT22;38179;52.756;6.906;2023-04-07T12:56:32;10.40;99.90
52211;DHT22;38179;52.756;6.906;2023-04-07T12:58:58;10.50;99.90
52211;DHT22;38179;52.756;6.906;2023-04-07T13:01:23;10.50;99.90
52211;DHT22;38179;52.756;6.906;2023-04-07T13:03:49;10.60;99.90
52211;DHT22;38179;52.756;6.906;2023-04-07T13:06:15;10.70;99.90
52211;DHT22;38179;52.756;6.906;2023-04-07T13:08:41;10.60;99.90
52211;DHT22;38179;52.756;6.906;2023-04-07T13:11:07;10.70;99.90
52211;DHT22;38179;52.756;6.906;2023-04-07T13:13:33;10.70;99.90
52211;DHT22;38179;52.756;6.906;2023-04-07T13:15:59;10.80;99.90
52211;DHT22;38179;52.756;6.906;2023-04-07T13:18:25;10.80;99.90
52211;DHT22;38179;52.756;6.906;2023-04-07T13:20:51;11.00;99.90
52211;DHT22;38179;52.756;6.906;2023-04-07T13:23:16;11.00;99.90
52211;DHT22;38179;52.756;6.906;2023-04-07T13:25:42;11.00;99.90
52211;DHT22;38179;52.756;6.906;2023-04-07T13:28:08;11.00;99.90
52211;DHT22;38179;52.756;6.906;2023-04-07T13:30:33;11.00;99.90
52211;DHT22;38179;52.756;6.906;2023-04-07T13:32:59;11.00;99.90
52211;DHT22;38179;52.756;6.906;2023-04-07T13:35:25;11.10;99.90
52211;DHT22;38179;52.756;6.906;2023-04-07T13:37:51;11.20;99.90
52211;DHT22;38179;52.756;6.906;2023-04-07T13:40:17;11.20;99.90
52211;DHT22;38179;52.756;6.906;2023-04-07T13:42:42;11.20;99.90
52211;DHT22;38179;52.756;6.906;2023-04-07T13:45:08;11.20;99.90
52211;DHT22;38179;52.756;6.906;2023-04-07T13:47:34;11.20;99.90
52211;DHT22;38179;52.756;6.906;2023-04-07T13:50:00;11.20;99.90
52211;DHT22;38179;52.756;6.906;2023-04-07T13:52:26;11.20;99.90
52211;DHT22;38179;52.756;6.906;2023-04-07T13:54:53;11.30;99.90
52211;DHT22;38179;52.756;6.906;2023-04-07T13:57:19;11.40;99.90
52211;DHT22;38179;52.756;6.906;2023-04-07T13:59:49;11.40;99.90
52211;DHT22;38179;52.756;6.906;2023-04-07T14:02:17;11.50;99.90
52211;DHT22;38179;52.756;6.906;2023-04-07T14:04:42;11.50;99.90
52211;DHT22;38179;52.756;6.906;2023-04-07T14:07:08;11.60;99.90
52211;DHT22;38179;52.756;6.906;2023-04-07T14:09:34;11.60;99.90
52211;DHT22;38179;52.756;6.906;2023-04-07T14:12:00;11.80;99.90
52211;DHT22;38179;52.756;6.906;2023-04-07T14:14:26;12.00;99.90
52211;DHT22;38179;52.756;6.906;2023-04-07T14:16:51;12.20;99.90
52211;DHT22;38179;52.756;6.906;2023-04-07T14:19:19;12.20;99.90
52211;DHT22;38179;52.756;6.906;2023-04-07T14:21:45;12.20;99.90
52211;DHT22;38179;52.756;6.906;2023-04-07T14:24:10;12.20;99.90
52211;DHT22;38179;52.756;6.906;2023-04-07T14:26:36;12.10;99.90
52211;DHT22;38179;52.756;6.906;2023-04-07T14:29:02;12.00;99.90
52211;DHT22;38179;52.756;6.906;2023-04-07T14:31:28;11.80;99.90
52211;DHT22;38179;52.756;6.906;2023-04-07T14:33:53;11.70;99.90
52211;DHT22;38179;52.756;6.906;2023-04-07T14:36:19;11.50;99.90
52211;DHT22;38179;52.756;6.906;2023-04-07T14:38:45;11.50;99.90
52211;DHT22;38179;52.756;6.906;2023-04-07T14:41:11;11.40;99.90
52211;DHT22;38179;52.756;6.906;2023-04-07T14:43:37;11.40;99.90
52211;DHT22;38179;52.756;6.906;2023-04-07T14:46:04;11.40;99.90
52211;DHT22;38179;52.756;6.906;2023-04-07T14:48:30;11.40;99.90
52211;DHT22;38179;52.756;6.906;2023-04-07T14:50:57;11.50;99.90
52211;DHT22;38179;52.756;6.906;2023-04-07T14:53:22;11.50;99.90
52211;DHT22;38179;52.756;6.906;2023-04-07T14:55:48;11.60;99.90
52211;DHT22;38179;52.756;6.906;2023-04-07T14:58:14;11.60;99.90
52211;DHT22;38179;52.756;6.906;2023-04-07T15:00:39;11.60;99.90
52211;DHT22;38179;52.756;6.906;2023-04-07T15:03:05;11.60;99.90
52211;DHT22;38179;52.756;6.906;2023-04-07T15:05:31;11.70;99.90
52211;DHT22;38179;52.756;6.906;2023-04-07T15:07:57;11.70;99.90
52211;DHT22;38179;52.756;6.906;2023-04-07T15:10:23;11.70;99.90
52211;DHT22;38179;52.756;6.906;2023-04-07T15:12:49;11.80;99.90
52211;DHT22;38179;52.756;6.906;2023-04-07T15:15:15;11.80;99.90
52211;DHT22;38179;52.756;6.906;2023-04-07T15:17:40;11.70;99.90
52211;DHT22;38179;52.756;6.906;2023-04-07T15:20:07;11.70;99.90
52211;DHT22;38179;52.756;6.906;2023-04-07T15:22:33;11.80;99.90
52211;DHT22;38179;52.756;6.906;2023-04-07T15:24:59;11.80;99.90
52211;DHT22;38179;52.756;6.906;2023-04-07T15:27:24;11.80;99.90
52211;DHT22;38179;52.756;6.906;2023-04-07T15:29:53;11.80;99.90
52211;DHT22;38179;52.756;6.906;2023-04-07T15:32:19;11.80;99.90
52211;DHT22;38179;52.756;6.906;2023-04-07T15:34:45;11.70;99.90
52211;DHT22;38179;52.756;6.906;2023-04-07T15:37:12;11.70;99.90
52211;DHT22;38179;52.756;6.906;2023-04-07T15:39:38;11.60;99.90
52211;DHT22;38179;52.756;6.906;2023-04-07T15:42:04;11.70;99.90
52211;DHT22;38179;52.756;6.906;2023-04-07T15:44:34;11.90;99.90
52211;DHT22;38179;52.756;6.906;2023-04-07T15:47:06;12.00;99.90
52211;DHT22;38179;52.756;6.906;2023-04-07T15:49:33;12.00;99.90
52211;DHT22;38179;52.756;6.906;2023-04-07T15:51:59;12.10;99.90
52211;DHT22;38179;52.756;6.906;2023-04-07T15:54:28;12.10;99.90
52211;DHT22;38179;52.756;6.906;2023-04-07T15:56:54;12.10;99.90